Time;durP1;ratioP1;P1;durP2;ratioP2;P2;SDS_P1;SDS_P2;PMS_P1;PMS_P2;Temp;Humidity;BMP_temperature;BMP_pressure;BME280_temperature;BME280_humidity;BME280_pressure;Samples;Min_cycle;Max_cycle;Signal;HPM_P1;HPM_P2
2022/08/24 00:00:08;;;;;;;;;;;;;;;21.34;76.19;99302.38;3121434;28;20015;-59
2022/08/24 00:01:39;;;;;;;;;;;;;;;21.34;76.05;99296.25;3121128;28;19929;-60
2022/08/24 00:03:11;;;;;;;;;;;;;;;21.32;76.23;99300.84;3121238;28;20394;-60
2022/08/24 00:04:42;;;;;;;;;;;;;;;21.31;76.13;99293.91;3121151;28;19968;-60
2022/08/24 00:06:15;;;;;;;;;;;;;;;21.32;75.84;99292.91;3121585;28;19936;-60
2022/08/24 00:07:47;;;;;;;;;;;;;;;21.29;76.18;99287.91;3120977;28;20020;-59
2022/08/24 00:09:19;;;;;;;;;;;;;;;21.30;76.01;99289.59;3121113;28;20329;-59
2022/08/24 00:10:50;;;;;;;;;;;;;;;21.31;76.19;99293.91;3122102;28;19936;-59
2022/08/24 00:12:23;;;;;;;;;;;;;;;21.31;75.82;99300.03;3121379;28;19936;-61
2022/08/24 00:13:54;;;;;;;;;;;;;;;21.32;75.96;99300.84;3119094;28;20326;-61
2022/08/24 00:15:25;;;;;;;;;;;;;;;21.27;75.82;99301.31;3120970;28;19929;-60
2022/08/24 00:16:58;;;;;;;;;;;;;;;21.29;75.98;99309.91;3121181;28;20326;-60
2022/08/24 00:18:29;;;;;;;;;;;;;;;21.28;75.89;99307.44;3121339;28;20391;-61
2022/08/24 00:20:01;;;;;;;;;;;;;;;21.25;75.75;99313.03;3120661;28;20019;-61
2022/08/24 00:21:33;;;;;;;;;;;;;;;21.22;75.78;99292.16;3126013;28;20414;-61
2022/08/24 00:23:04;;;;;;;;;;;;;;;21.21;75.79;99301.06;3121160;28;19929;-60
2022/08/24 00:24:36;;;;;;;;;;;;;;;21.18;75.91;99290.75;3121057;28;19994;-60
2022/08/24 00:26:07;;;;;;;;;;;;;;;21.14;76.14;99296.34;3121296;28;19991;-60
2022/08/24 00:27:41;;;;;;;;;;;;;;;21.17;75.94;99287.28;3120935;28;20047;-61
2022/08/24 00:29:12;;;;;;;;;;;;;;;21.17;76.12;99297.06;3121110;28;20019;-60
2022/08/24 00:30:44;;;;;;;;;;;;;;;21.18;75.86;99298.69;3120826;28;19933;-58
2022/08/24 00:32:16;;;;;;;;;;;;;;;21.18;75.92;99299.56;3120833;28;19999;-60
2022/08/24 00:33:48;;;;;;;;;;;;;;;21.18;75.47;99302.22;3120925;28;19925;-60
2022/08/24 00:35:20;;;;;;;;;;;;;;;21.19;75.36;99298.56;3120590;28;19940;-61
2022/08/24 00:36:52;;;;;;;;;;;;;;;21.21;75.32;99298.41;3121055;28;19995;-60
2022/08/24 00:38:23;;;;;;;;;;;;;;;21.20;75.73;99302.03;3120725;28;19925;-61
2022/08/24 00:39:55;;;;;;;;;;;;;;;21.21;75.63;99296.63;3123066;28;19929;-60
2022/08/24 00:41:26;;;;;;;;;;;;;;;21.19;75.60;99303.03;3120980;28;19925;-60
2022/08/24 00:43:02;;;;;;;;;;;;;;;21.20;75.52;99294.09;3120740;28;19925;-60
2022/08/24 00:44:33;;;;;;;;;;;;;;;21.20;75.54;99291.47;3120762;28;19925;-61
2022/08/24 00:46:12;;;;;;;;;;;;;;;21.19;75.28;99293.28;3120842;28;19925;-60
2022/08/24 00:47:45;;;;;;;;;;;;;;;21.17;75.35;99302.34;3120826;28;20020;-62
2022/08/24 00:49:21;;;;;;;;;;;;;;;21.16;75.48;99298.88;3120867;28;19932;-60
2022/08/24 00:50:55;;;;;;;;;;;;;;;21.17;75.15;99295.22;3120771;28;19929;-60
2022/08/24 00:52:28;;;;;;;;;;;;;;;21.18;74.97;99307.50;3120741;28;19991;-60
2022/08/24 00:54:02;;;;;;;;;;;;;;;21.18;75.27;99302.22;3120769;28;19925;-61
2022/08/24 00:55:36;;;;;;;;;;;;;;;21.19;75.35;99306.50;3125197;28;19929;-61
2022/08/24 00:57:09;;;;;;;;;;;;;;;21.20;75.01;99304.69;3120811;28;19975;-61
2022/08/24 00:58:46;;;;;;;;;;;;;;;21.19;75.09;99303.03;3120645;28;20562;-61
2022/08/24 01:00:19;;;;;;;;;;;;;;;21.19;75.24;99301.22;3120885;28;20005;-61
2022/08/24 01:01:52;;;;;;;;;;;;;;;21.19;75.10;99303.03;3120540;28;19925;-61
2022/08/24 01:03:23;;;;;;;;;;;;;;;21.19;74.99;99300.41;3120695;28;19931;-61
2022/08/24 01:04:55;;;;;;;;;;;;;;;21.20;74.89;99302.03;3120476;28;19929;-61
2022/08/24 01:06:26;;;;;;;;;;;;;;;21.19;75.06;99308.34;3120576;28;19924;-61
2022/08/24 01:07:58;;;;;;;;;;;;;;;21.19;74.70;99309.16;3120616;28;20015;-61
2022/08/24 01:09:29;;;;;;;;;;;;;;;21.21;74.57;99311.66;3120481;28;19932;-61
2022/08/24 01:11:01;;;;;;;;;;;;;;;21.21;74.44;99311.66;3120767;28;19977;-61
2022/08/24 01:12:33;;;;;;;;;;;;;;;21.22;74.41;99313.34;3120552;28;19925;-61
2022/08/24 01:14:07;;;;;;;;;;;;;;;21.23;74.42;99312.34;3120594;28;19929;-60
2022/08/24 01:15:40;;;;;;;;;;;;;;;21.24;74.13;99311.38;3120441;28;20015;-61
2022/08/24 01:19:01;;;;;;;;;;;;;;;21.22;74.23;99310.69;3120688;28;20361;-61
2022/08/24 01:20:32;;;;;;;;;;;;;;;21.24;74.16;99314.84;3120437;28;19932;-61
2022/08/24 01:22:19;;;;;;;;;;;;;;;21.20;74.09;99315.28;3120601;28;20332;-61
2022/08/24 01:23:54;;;;;;;;;;;;;;;21.10;74.54;99316.19;3120587;28;19926;-61
2022/08/24 01:25:25;;;;;;;;;;;;;;;21.06;74.94;99322.75;3120720;28;20394;-61
2022/08/24 01:26:57;;;;;;;;;;;;;;;20.99;75.12;99321.66;3120467;28;19936;-61
2022/08/24 01:28:29;;;;;;;;;;;;;;;20.96;75.18;99324.63;3120548;28;19976;-61
2022/08/24 01:30:02;;;;;;;;;;;;;;;20.93;75.36;99329.38;3120415;28;19924;-61
2022/08/24 01:31:33;;;;;;;;;;;;;;;20.88;75.37;99335.97;3120621;28;19925;-61
2022/08/24 01:33:06;;;;;;;;;;;;;;;20.88;75.53;99337.75;3120500;28;19929;-61
2022/08/24 01:34:36;;;;;;;;;;;;;;;20.87;75.53;99346.66;3120221;28;20394;-61
2022/08/24 01:36:14;;;;;;;;;;;;;;;20.86;75.35;99342.38;3120630;28;19932;-61
2022/08/24 01:37:46;;;;;;;;;;;;;;;20.82;75.68;99340.97;3120544;28;20416;-61
2022/08/24 01:39:20;;;;;;;;;;;;;;;20.78;75.85;99336.97;3121921;28;19933;-61
2022/08/24 01:40:52;;;;;;;;;;;;;;;20.70;76.16;99335.03;3122863;28;20504;-61
2022/08/24 01:42:25;;;;;;;;;;;;;;;20.70;76.00;99336.84;3123069;28;20321;-61
2022/08/24 01:43:58;;;;;;;;;;;;;;;20.68;76.50;99337.00;3122801;28;20405;-61
2022/08/24 01:45:29;;;;;;;;;;;;;;;20.67;76.34;99341.47;3122748;28;19933;-61
2022/08/24 01:47:02;;;;;;;;;;;;;;;20.70;76.20;99336.84;3122657;28;20633;-61
2022/08/24 01:48:34;;;;;;;;;;;;;;;20.71;76.30;99338.53;3122920;28;19925;-61
2022/08/24 01:50:05;;;;;;;;;;;;;;;20.67;76.64;99340.63;3122480;28;19986;-61
2022/08/24 01:51:37;;;;;;;;;;;;;;;20.65;76.76;99338.13;3122837;28;19932;-61
2022/08/24 01:53:08;;;;;;;;;;;;;;;20.63;76.88;99342.72;3122786;28;19929;-60
2022/08/24 01:54:41;;;;;;;;;;;;;;;20.64;76.75;99344.38;3122754;28;19951;-61
2022/08/24 01:56:12;;;;;;;;;;;;;;;20.67;76.51;99335.31;3125907;28;20060;-61
2022/08/24 01:57:43;;;;;;;;;;;;;;;20.70;76.47;99342.97;3122842;28;20133;-61
2022/08/24 01:59:15;;;;;;;;;;;;;;;20.71;76.11;99339.38;3122714;28;19924;-61
2022/08/24 02:00:47;;;;;;;;;;;;;;;20.73;76.43;99340.03;3122772;28;19925;-62
2022/08/24 02:02:20;;;;;;;;;;;;;;;20.74;76.36;99339.06;3122476;28;19932;-61
2022/08/24 02:03:51;;;;;;;;;;;;;;;20.72;76.82;99341.03;3122209;28;19929;-61
2022/08/24 02:05:24;;;;;;;;;;;;;;;20.68;77.11;99344.94;3122766;28;19925;-61
2022/08/24 02:06:55;;;;;;;;;;;;;;;20.66;76.99;99331.84;3122530;28;19924;-62
2022/08/24 02:08:27;;;;;;;;;;;;;;;20.64;76.90;99333.81;3122709;28;19932;-61
2022/08/24 02:09:59;;;;;;;;;;;;;;;20.62;77.25;99332.31;3122684;28;19925;-61
2022/08/24 02:11:31;;;;;;;;;;;;;;;20.59;77.09;99336.06;3125383;28;20401;-61
2022/08/24 02:13:01;;;;;;;;;;;;;;;20.56;77.58;99333.72;3122386;28;19932;-61
2022/08/24 02:14:33;;;;;;;;;;;;;;;20.51;77.64;99335.91;3122479;28;19925;-61
2022/08/24 02:16:05;;;;;;;;;;;;;;;20.48;77.64;99338.84;3122584;28;19929;-60
2022/08/24 02:17:36;;;;;;;;;;;;;;;20.45;78.03;99333.84;3122514;28;20390;-61
2022/08/24 02:19:08;;;;;;;;;;;;;;;20.45;77.91;99339.13;3122437;28;20051;-60
2022/08/24 02:20:38;;;;;;;;;;;;;;;20.40;78.12;99338.72;3127329;28;20012;-60
2022/08/24 02:22:10;;;;;;;;;;;;;;;20.39;78.39;99342.38;3122456;28;19925;-60
2022/08/24 02:23:41;;;;;;;;;;;;;;;20.37;78.20;99334.56;3122418;28;19929;-60
2022/08/24 02:25:14;;;;;;;;;;;;;;;20.36;78.27;99340.00;3122256;28;19925;-60
2022/08/24 02:26:48;;;;;;;;;;;;;;;20.31;78.76;99334.31;3122678;28;19925;-60
2022/08/24 02:28:19;;;;;;;;;;;;;;;20.30;78.51;99335.28;3122284;28;20016;-61
2022/08/24 02:29:50;;;;;;;;;;;;;;;20.28;78.95;99334.59;3122392;28;19987;-60
2022/08/24 02:31:22;;;;;;;;;;;;;;;20.28;78.64;99331.94;3122241;28;19936;-60
2022/08/24 02:32:53;;;;;;;;;;;;;;;20.25;78.87;99332.22;3122386;28;19925;-60
2022/08/24 02:34:25;;;;;;;;;;;;;;;20.25;78.78;99329.59;3122194;28;19925;-60
2022/08/24 02:35:57;;;;;;;;;;;;;;;20.28;78.48;99337.22;3122417;28;19972;-61
2022/08/24 02:37:28;;;;;;;;;;;;;;;20.30;78.52;99341.41;3122193;28;19929;-60
2022/08/24 02:39:00;;;;;;;;;;;;;;;20.34;78.09;99341.94;3122123;28;19939;-60
2022/08/24 02:40:33;;;;;;;;;;;;;;;20.38;78.15;99340.66;3128720;28;19932;-60
2022/08/24 02:42:05;;;;;;;;;;;;;;;20.42;78.05;99344.72;3122095;28;19936;-60
2022/08/24 02:43:36;;;;;;;;;;;;;;;20.45;77.83;99342.63;3122162;28;20004;-60
2022/08/24 02:45:08;;;;;;;;;;;;;;;20.46;78.11;99338.97;3121997;28;19932;-60
2022/08/24 02:46:41;;;;;;;;;;;;;;;20.49;78.21;99347.63;3122230;28;19935;-60
2022/08/24 02:48:12;;;;;;;;;;;;;;;20.50;78.03;99352.78;3121948;28;19991;-60
2022/08/24 02:49:44;;;;;;;;;;;;;;;20.52;78.10;99352.63;3121781;28;20382;-61
2022/08/24 02:51:19;;;;;;;;;;;;;;;20.53;78.09;99349.00;3121026;28;20015;-60
2022/08/24 02:52:51;;;;;;;;;;;;;;;20.53;78.07;99349.88;3122301;28;19925;-61
2022/08/24 02:54:23;;;;;;;;;;;;;;;20.56;77.70;99349.59;3122301;28;20354;-60
2022/08/24 02:55:56;;;;;;;;;;;;;;;20.59;77.50;99353.75;3123003;28;19928;-61
2022/08/24 02:57:27;;;;;;;;;;;;;;;20.61;77.28;99359.72;3121938;28;19933;-60
2022/08/24 02:58:59;;;;;;;;;;;;;;;20.63;77.26;99355.97;3122067;28;19925;-60
2022/08/24 03:00:31;;;;;;;;;;;;;;;20.63;77.30;99361.25;3122118;28;19932;-60
2022/08/24 03:02:04;;;;;;;;;;;;;;;20.64;77.59;99359.44;3121837;28;20535;-60
2022/08/24 03:03:36;;;;;;;;;;;;;;;20.64;77.40;99357.63;3121909;28;19925;-61
2022/08/24 03:05:09;;;;;;;;;;;;;;;20.66;77.33;99365.41;3121506;28;19987;-60
2022/08/24 03:06:39;;;;;;;;;;;;;;;20.66;77.09;99365.41;3121791;28;19999;-60
2022/08/24 03:08:11;;;;;;;;;;;;;;;20.66;77.48;99370.72;3121838;28;19982;-61
2022/08/24 03:09:42;;;;;;;;;;;;;;;20.68;77.04;99372.25;3122233;28;19956;-60
2022/08/24 03:11:15;;;;;;;;;;;;;;;20.73;77.04;99376.25;3126079;28;19932;-61
2022/08/24 03:12:46;;;;;;;;;;;;;;;20.71;76.93;99372.94;3121835;28;19979;-61
2022/08/24 03:14:18;;;;;;;;;;;;;;;20.73;77.10;99376.25;3121725;28;19925;-61
2022/08/24 03:15:49;;;;;;;;;;;;;;;20.74;76.91;99378.78;3121868;28;20537;-61
2022/08/24 03:17:22;;;;;;;;;;;;;;;20.74;77.29;99377.94;3121655;28;19936;-61
2022/08/24 03:18:54;;;;;;;;;;;;;;;20.71;77.09;99379.06;3121566;28;19975;-61
2022/08/24 03:20:25;;;;;;;;;;;;;;;20.72;77.07;99380.72;3121524;28;19926;-61
2022/08/24 03:21:56;;;;;;;;;;;;;;;20.70;77.24;99380.03;3121600;28;19925;-61
2022/08/24 03:23:27;;;;;;;;;;;;;;;20.73;77.32;99377.06;3121697;28;20060;-61
2022/08/24 03:24:59;;;;;;;;;;;;;;;20.73;77.31;99381.53;3121549;28;19948;-63
2022/08/24 03:26:32;;;;;;;;;;;;;;;20.73;77.26;99382.38;3121704;28;19925;-60
2022/08/24 03:28:04;;;;;;;;;;;;;;;20.75;77.14;99380.44;3121447;28;20314;-60
2022/08/24 03:29:35;;;;;;;;;;;;;;;20.76;76.88;99375.97;3121648;28;19925;-60
2022/08/24 03:31:07;;;;;;;;;;;;;;;20.75;77.23;99387.53;3114989;28;19936;-60
2022/08/24 03:32:40;;;;;;;;;;;;;;;20.75;76.98;99385.72;3121627;28;20420;-60
2022/08/24 03:34:12;;;;;;;;;;;;;;;20.75;77.21;99390.19;3121201;28;19929;-60
2022/08/24 03:35:42;;;;;;;;;;;;;;;20.75;76.96;99383.06;3121384;28;19925;-60
2022/08/24 03:37:15;;;;;;;;;;;;;;;20.76;77.14;99387.38;3121348;28;19929;-61
2022/08/24 03:38:46;;;;;;;;;;;;;;;20.76;76.95;99383.91;3121440;28;20017;-61
2022/08/24 03:40:19;;;;;;;;;;;;;;;20.75;77.27;99390.19;3126466;28;19925;-60
2022/08/24 03:41:51;;;;;;;;;;;;;;;20.74;77.28;99383.22;3121140;28;19932;-60
2022/08/24 03:45:12;;;;;;;;;;;;;;;20.78;77.11;99390.72;3121372;28;19929;-61
2022/08/24 03:46:45;;;;;;;;;;;;;;;20.77;76.97;99386.41;3121296;28;19925;-61
2022/08/24 03:48:15;;;;;;;;;;;;;;;20.78;77.06;99392.53;3121094;28;19976;-61
2022/08/24 03:49:47;;;;;;;;;;;;;;;20.79;76.68;99389.72;3121051;28;19936;-61
2022/08/24 03:51:19;;;;;;;;;;;;;;;20.80;76.99;99387.94;3121508;28;19929;-60
2022/08/24 03:52:51;;;;;;;;;;;;;;;20.81;76.50;99379.84;3121222;28;19925;-61
2022/08/24 03:54:24;;;;;;;;;;;;;;;20.83;76.81;99377.06;3121251;28;20625;-60
2022/08/24 03:55:54;;;;;;;;;;;;;;;20.84;76.46;99384.00;3121626;28;19925;-60
2022/08/24 03:57:27;;;;;;;;;;;;;;;20.82;76.78;99381.53;3121339;28;20019;-59
2022/08/24 03:58:59;;;;;;;;;;;;;;;20.81;76.57;99382.50;3117982;28;19925;-60
2022/08/24 04:00:30;;;;;;;;;;;;;;;20.81;76.72;99386.97;3121111;28;19933;-59
2022/08/24 04:02:01;;;;;;;;;;;;;;;20.80;76.50;99393.25;3120673;28;20024;-60
2022/08/24 04:03:34;;;;;;;;;;;;;;;20.81;76.69;99392.25;3121255;28;19929;-59
2022/08/24 04:05:06;;;;;;;;;;;;;;;20.80;76.65;99386.13;3121051;28;20026;-60
2022/08/24 04:06:42;;;;;;;;;;;;;;;20.80;76.71;99393.25;3120986;28;20516;-60
2022/08/24 04:08:14;;;;;;;;;;;;;;;20.79;76.63;99392.38;3120964;28;19929;-61
2022/08/24 04:09:45;;;;;;;;;;;;;;;20.80;76.56;99395.88;3119149;28;20324;-59
2022/08/24 04:11:18;;;;;;;;;;;;;;;20.80;76.56;99391.41;3124346;28;19925;-60
2022/08/24 04:12:52;;;;;;;;;;;;;;;20.79;76.33;99392.38;3123306;28;19940;-61
2022/08/24 04:14:24;;;;;;;;;;;;;;;20.80;76.18;99393.25;3121120;28;19925;-59
2022/08/24 04:15:56;;;;;;;;;;;;;;;20.79;76.44;99395.03;3120582;28;20394;-59
2022/08/24 04:17:29;;;;;;;;;;;;;;;20.79;76.62;99388.91;3120971;28;19925;-58
2022/08/24 04:19:00;;;;;;;;;;;;;;;20.76;76.59;99384.72;3120708;28;20427;-59
2022/08/24 04:20:37;;;;;;;;;;;;;;;20.78;76.49;99387.25;3120880;28;19936;-61
2022/08/24 04:22:08;;;;;;;;;;;;;;;20.76;76.47;99382.09;3120833;28;19932;-59
2022/08/24 04:23:41;;;;;;;;;;;;;;;20.78;76.26;99388.06;3121192;28;20024;-61
2022/08/24 04:25:12;;;;;;;;;;;;;;;20.79;76.42;99381.78;3120776;28;20412;-58
2022/08/24 04:26:43;;;;;;;;;;;;;;;20.79;76.49;99387.09;3121080;28;19925;-59
2022/08/24 04:28:17;;;;;;;;;;;;;;;20.79;76.22;99391.53;3120875;28;19926;-59
2022/08/24 04:29:49;;;;;;;;;;;;;;;20.81;76.33;99384.31;3120899;28;19925;-59
2022/08/24 04:31:20;;;;;;;;;;;;;;;20.84;75.96;99394.59;3120721;28;19925;-60
2022/08/24 04:32:52;;;;;;;;;;;;;;;20.83;76.19;99390.31;3120899;28;20445;-59
2022/08/24 04:34:23;;;;;;;;;;;;;;;20.86;76.06;99390.00;3120544;28;19925;-59
2022/08/24 04:35:54;;;;;;;;;;;;;;;20.87;76.27;99392.50;3109709;28;19952;-60
2022/08/24 04:37:25;;;;;;;;;;;;;;;20.86;76.00;99393.47;3120867;28;19948;-58
2022/08/24 04:38:57;;;;;;;;;;;;;;;20.87;76.14;99396.97;3120694;28;19932;-59
2022/08/24 04:40:28;;;;;;;;;;;;;;;20.86;76.11;99397.94;3124667;28;19925;-58
2022/08/24 04:42:00;;;;;;;;;;;;;;;20.86;76.00;99397.94;3120783;28;19936;-61
2022/08/24 04:43:33;;;;;;;;;;;;;;;20.85;76.00;99401.56;3120723;28;19929;-59
2022/08/24 04:45:05;;;;;;;;;;;;;;;20.84;76.13;99403.38;3120721;28;20051;-60
2022/08/24 04:46:37;;;;;;;;;;;;;;;20.85;76.28;99402.41;3120652;28;19931;-60
2022/08/24 04:48:10;;;;;;;;;;;;;;;20.86;76.21;99401.44;3120115;28;19929;-62
2022/08/24 04:49:41;;;;;;;;;;;;;;;20.86;76.47;99409.38;3120663;28;20461;-61
2022/08/24 04:51:14;;;;;;;;;;;;;;;20.87;76.24;99407.53;3120755;28;20012;-61
2022/08/24 04:52:45;;;;;;;;;;;;;;;20.88;76.11;99406.56;3120578;28;19925;-61
2022/08/24 04:54:17;;;;;;;;;;;;;;;20.90;76.27;99412.53;3120792;28;19925;-63
2022/08/24 04:55:49;;;;;;;;;;;;;;;20.93;75.81;99409.63;3126758;28;19981;-63
2022/08/24 04:57:20;;;;;;;;;;;;;;;20.94;75.90;99411.28;3120736;28;19925;-64
2022/08/24 04:58:54;;;;;;;;;;;;;;;20.95;75.96;99410.31;3120591;28;19929;-64
2022/08/24 05:00:25;;;;;;;;;;;;;;;20.98;75.78;99417.13;3120513;28;19932;-64
2022/08/24 05:01:56;;;;;;;;;;;;;;;20.99;75.96;99411.69;3120336;28;20480;-64
2022/08/24 05:03:27;;;;;;;;;;;;;;;20.99;76.14;99403.72;3120451;28;20079;-64
2022/08/24 05:04:59;;;;;;;;;;;;;;;21.00;75.73;99409.84;3120603;28;20356;-63
2022/08/24 05:06:32;;;;;;;;;;;;;;;20.98;75.77;99401.25;3120688;28;19936;-63
2022/08/24 05:08:04;;;;;;;;;;;;;;;21.00;75.75;99408.06;3120727;28;20455;-64
2022/08/24 05:09:34;;;;;;;;;;;;;;;20.99;76.00;99403.72;3120751;28;19925;-64
2022/08/24 05:11:07;;;;;;;;;;;;;;;20.99;76.18;99406.38;3122119;28;19925;-64
2022/08/24 05:12:38;;;;;;;;;;;;;;;21.00;76.00;99402.78;3120391;28;19929;-65
2022/08/24 05:14:12;;;;;;;;;;;;;;;21.01;75.94;99401.78;3119892;28;19943;-64
2022/08/24 05:15:43;;;;;;;;;;;;;;;21.08;75.96;99402.03;3120520;28;19983;-64
2022/08/24 05:17:15;;;;;;;;;;;;;;;21.11;75.67;99407.84;3120405;28;19975;-61
2022/08/24 05:18:48;;;;;;;;;;;;;;;21.13;75.67;99411.19;3120670;28;19936;-62
2022/08/24 05:20:20;;;;;;;;;;;;;;;21.15;75.91;99405.78;3120448;28;19986;-62
2022/08/24 05:21:52;;;;;;;;;;;;;;;21.20;75.93;99405.31;3120291;28;19929;-62
2022/08/24 05:23:23;;;;;;;;;;;;;;;21.21;75.89;99412.28;3120329;28;20459;-63
2022/08/24 05:24:55;;;;;;;;;;;;;;;21.21;75.69;99404.31;3120938;28;20021;-63
2022/08/24 05:26:28;;;;;;;;;;;;;;;21.24;75.75;99402.25;3120826;28;19925;-63
2022/08/24 05:27:59;;;;;;;;;;;;;;;21.27;75.79;99411.72;3120369;28;19936;-62
2022/08/24 05:29:33;;;;;;;;;;;;;;;21.29;75.93;99407.91;3120320;28;19925;-63
2022/08/24 05:31:09;;;;;;;;;;;;;;;21.32;75.63;99406.78;3120520;28;19943;-62
2022/08/24 05:32:41;;;;;;;;;;;;;;;21.31;75.27;99402.47;3120419;28;20492;-62
2022/08/24 05:34:13;;;;;;;;;;;;;;;21.32;75.53;99410.25;3120255;28;19936;-63
2022/08/24 05:35:44;;;;;;;;;;;;;;;21.35;75.29;99404.69;3120350;28;19933;-62
2022/08/24 05:37:16;;;;;;;;;;;;;;;21.37;75.18;99401.09;3120355;28;19925;-62
2022/08/24 05:38:47;;;;;;;;;;;;;;;21.37;75.11;99398.44;3120427;28;19936;-63
2022/08/24 05:40:19;;;;;;;;;;;;;;;21.36;75.07;99402.91;3123010;28;19929;-66
2022/08/24 05:41:51;;;;;;;;;;;;;;;21.40;75.19;99406.09;3120187;28;19932;-67
2022/08/24 05:43:22;;;;;;;;;;;;;;;21.44;75.21;99405.63;3120325;28;19951;-66
2022/08/24 05:44:55;;;;;;;;;;;;;;;21.47;74.85;99396.56;3120150;28;19929;-66
2022/08/24 05:46:28;;;;;;;;;;;;;;;21.51;74.67;99398.78;3120462;28;19979;-64
2022/08/24 05:47:59;;;;;;;;;;;;;;;21.56;74.77;99398.31;3120335;28;19936;-62
2022/08/24 05:49:31;;;;;;;;;;;;;;;21.58;74.55;99397.19;3120008;28;19925;-63
2022/08/24 05:53:25;;;;;;;;;;;;;;;21.66;73.92;99407.03;3076196;28;19930;-63
2022/08/24 05:54:57;;;;;;;;;;;;;;;21.70;74.02;99402.28;3093226;28;19926;-62
2022/08/24 05:56:29;;;;;;;;;;;;;;;21.75;73.63;99400.84;3093698;28;20785;-62
2022/08/24 05:58:00;;;;;;;;;;;;;;;21.79;73.68;99411.97;3093285;28;20414;-63
2022/08/24 05:59:31;;;;;;;;;;;;;;;21.80;73.36;99409.19;3115107;28;19932;-61
2022/08/24 06:01:07;;;;;;;;;;;;;;;21.82;73.01;99409.00;3119885;28;19987;-61
2022/08/24 06:02:39;;;;;;;;;;;;;;;21.85;73.02;99411.34;3119859;28;20516;-63
2022/08/24 06:04:11;;;;;;;;;;;;;;;21.88;73.23;99403.09;3119990;28;20393;-62
2022/08/24 06:05:42;;;;;;;;;;;;;;;21.93;73.16;99410.63;3119994;28;20013;-63
2022/08/24 06:07:14;;;;;;;;;;;;;;;21.95;72.97;99401.53;3119765;28;20012;-62
2022/08/24 06:08:46;;;;;;;;;;;;;;;21.99;73.05;99402.06;3119130;28;19991;-62
2022/08/24 06:10:18;;;;;;;;;;;;;;;22.00;72.96;99398.41;3126824;28;19937;-63
2022/08/24 06:11:50;;;;;;;;;;;;;;;22.08;72.66;99405.59;3114790;28;19940;-62
2022/08/24 06:13:21;;;;;;;;;;;;;;;22.11;72.67;99400.00;3119038;28;19925;-62
2022/08/24 06:14:53;;;;;;;;;;;;;;;22.15;72.66;99398.69;3119043;28;19936;-63
2022/08/24 06:16:25;;;;;;;;;;;;;;;22.16;72.06;99392.44;3119082;28;19937;-63
2022/08/24 06:17:56;;;;;;;;;;;;;;;22.20;72.05;99399.09;3118465;28;19925;-64
2022/08/24 06:19:28;;;;;;;;;;;;;;;22.24;71.86;99401.31;3119214;28;19925;-67
2022/08/24 06:21:03;;;;;;;;;;;;;;;22.26;71.83;99404.63;3118929;28;19929;-64
2022/08/24 06:22:35;;;;;;;;;;;;;;;22.30;71.94;99399.00;3118696;28;19936;-65
2022/08/24 06:24:07;;;;;;;;;;;;;;;22.32;71.76;99399.69;3119998;28;19987;-61
2022/08/24 06:27:27;;;;;;;;;;;;;;;22.40;71.72;99402.41;3122317;28;19925;-64
2022/08/24 06:29:01;;;;;;;;;;;;;;;22.42;71.54;99405.72;3121834;28;20753;-63
2022/08/24 06:30:33;;;;;;;;;;;;;;;22.44;71.54;99409.06;3122542;28;19925;-62
2022/08/24 06:32:06;;;;;;;;;;;;;;;22.47;71.35;99408.75;3121826;28;20051;-60
2022/08/24 06:33:38;;;;;;;;;;;;;;;22.48;71.25;99408.63;3122416;28;19932;-61
2022/08/24 06:35:10;;;;;;;;;;;;;;;22.54;70.88;99406.31;3121976;28;20428;-60
2022/08/24 06:36:41;;;;;;;;;;;;;;;22.56;71.23;99404.34;3121966;28;19941;-61
2022/08/24 06:38:13;;;;;;;;;;;;;;;22.60;70.92;99411.03;3121859;28;20388;-64
2022/08/24 06:39:44;;;;;;;;;;;;;;;22.62;70.88;99409.03;3123462;28;20325;-66
2022/08/24 06:41:16;;;;;;;;;;;;;;;22.65;70.95;99408.72;3122421;28;19925;-64
2022/08/24 06:42:48;;;;;;;;;;;;;;;22.67;70.45;99404.09;3122261;28;19925;-63
2022/08/24 06:44:19;;;;;;;;;;;;;;;22.69;70.36;99410.09;3122219;28;19951;-63
2022/08/24 06:45:52;;;;;;;;;;;;;;;22.71;70.55;99411.56;3122331;28;19948;-64
2022/08/24 06:47:25;;;;;;;;;;;;;;;22.72;70.24;99415.06;3122251;28;19929;-64
2022/08/24 06:48:56;;;;;;;;;;;;;;;22.76;70.36;99416.41;3122214;28;19929;-63
2022/08/24 06:50:28;;;;;;;;;;;;;;;22.80;70.01;99412.44;3122558;28;19980;-64
2022/08/24 06:51:59;;;;;;;;;;;;;;;22.84;69.98;99407.69;3122230;28;19929;-65
2022/08/24 06:53:31;;;;;;;;;;;;;;;22.86;69.79;99405.69;3122337;28;20008;-63
2022/08/24 06:55:03;;;;;;;;;;;;;;;22.88;69.72;99404.53;3123117;28;19925;-64
2022/08/24 06:56:36;;;;;;;;;;;;;;;22.90;69.90;99407.88;3124772;28;19952;-63
2022/08/24 06:58:07;;;;;;;;;;;;;;;22.88;69.93;99401.88;3121906;28;19991;-63
2022/08/24 06:59:41;;;;;;;;;;;;;;;22.96;69.85;99408.28;3121548;28;20317;-63
2022/08/24 07:01:14;;;;;;;;;;;;;;;22.98;69.30;99403.63;3121707;28;19929;-63
2022/08/24 07:02:47;;;;;;;;;;;;;;;23.04;69.40;99413.59;3122055;28;20397;-63
2022/08/24 07:04:19;;;;;;;;;;;;;;;23.07;69.35;99406.16;3120524;28;19979;-62
2022/08/24 07:05:50;;;;;;;;;;;;;;;23.12;69.31;99411.00;3121511;28;19987;-61
2022/08/24 07:07:22;;;;;;;;;;;;;;;23.15;69.36;99405.34;3119372;28;19932;-66
2022/08/24 07:08:55;;;;;;;;;;;;;;;23.20;69.11;99411.03;3121715;28;19932;-65
2022/08/24 07:10:26;;;;;;;;;;;;;;;23.26;68.96;99407.72;3123425;28;19932;-66
2022/08/24 07:11:58;;;;;;;;;;;;;;;23.32;69.18;99411.56;3125510;28;20011;-66
2022/08/24 07:13:30;;;;;;;;;;;;;;;23.37;69.23;99406.63;3122114;28;20324;-65
2022/08/24 07:15:02;;;;;;;;;;;;;;;23.41;68.81;99410.59;3121859;28;20015;-65
2022/08/24 07:16:34;;;;;;;;;;;;;;;23.47;68.57;99414.44;3121645;28;20411;-66
2022/08/24 07:18:09;;;;;;;;;;;;;;;23.49;67.58;99407.97;3121666;28;19925;-64
2022/08/24 07:19:41;;;;;;;;;;;;;;;23.49;66.99;99410.63;3121685;28;19986;-64
2022/08/24 07:21:12;;;;;;;;;;;;;;;23.52;67.10;99412.97;3121418;28;19978;-63
2022/08/24 07:22:44;;;;;;;;;;;;;;;23.56;66.87;99410.81;3121367;28;19929;-63
2022/08/24 07:24:16;;;;;;;;;;;;;;;23.60;67.25;99409.47;3121632;28;19934;-64
2022/08/24 07:25:48;;;;;;;;;;;;;;;23.62;66.02;99412.81;3122274;28;19925;-63
2022/08/24 07:27:19;;;;;;;;;;;;;;;23.64;66.46;99410.00;3121535;28;19929;-61
2022/08/24 07:28:51;;;;;;;;;;;;;;;23.69;65.95;99408.50;3121811;28;20397;-61
2022/08/24 07:30:23;;;;;;;;;;;;;;;23.73;65.84;99403.75;3121702;28;19926;-61
2022/08/24 07:31:55;;;;;;;;;;;;;;;23.78;65.52;99399.59;3121837;28;19936;-61
2022/08/24 07:33:28;;;;;;;;;;;;;;;23.83;65.17;99399.09;3121606;28;19926;-61
2022/08/24 07:34:59;;;;;;;;;;;;;;;23.86;64.49;99397.94;3121055;28;19940;-61
2022/08/24 07:36:30;;;;;;;;;;;;;;;23.91;64.66;99391.13;3121203;28;19948;-62
2022/08/24 07:38:03;;;;;;;;;;;;;;;23.99;64.26;99387.66;3121858;28;20047;-63
2022/08/24 07:39:35;;;;;;;;;;;;;;;24.08;64.24;99394.66;3121270;28;19991;-63
2022/08/24 07:41:06;;;;;;;;;;;;;;;24.15;63.79;99398.28;3121565;28;19952;-62
2022/08/24 07:42:38;;;;;;;;;;;;;;;24.22;63.39;99399.28;3121282;28;20333;-63
2022/08/24 07:44:11;;;;;;;;;;;;;;;24.31;63.74;99408.09;3121362;28;20295;-60
2022/08/24 07:45:42;;;;;;;;;;;;;;;24.38;63.06;99406.44;3121034;28;20424;-60
2022/08/24 07:47:16;;;;;;;;;;;;;;;24.43;62.82;99409.47;3120511;28;20229;-61
2022/08/24 07:48:49;;;;;;;;;;;;;;;24.47;62.34;99407.28;3121545;28;19933;-59
2022/08/24 07:50:21;;;;;;;;;;;;;;;24.46;62.27;99403.81;3121364;28;19929;-61
2022/08/24 07:51:52;;;;;;;;;;;;;;;24.55;62.85;99401.09;3121306;28;19925;-60
2022/08/24 07:53:24;;;;;;;;;;;;;;;24.61;62.63;99405.75;3121324;28;19979;-60
2022/08/24 07:54:55;;;;;;;;;;;;;;;24.68;61.72;99406.75;3121054;28;19925;-59
2022/08/24 07:56:27;;;;;;;;;;;;;;;24.74;61.81;99411.41;3123197;28;20007;-60
2022/08/24 07:57:59;;;;;;;;;;;;;;;24.82;61.64;99415.88;3121366;28;19929;-60
2022/08/24 07:59:33;;;;;;;;;;;;;;;24.84;60.61;99409.38;3121541;28;19925;-60
2022/08/24 08:01:06;;;;;;;;;;;;;;;24.89;60.31;99411.53;3121529;28;19929;-60
2022/08/24 08:02:38;;;;;;;;;;;;;;;24.95;60.94;99416.16;3121181;28;20349;-60
2022/08/24 08:04:12;;;;;;;;;;;;;;;25.01;61.19;99420.81;3121122;28;20333;-62
2022/08/24 08:05:44;;;;;;;;;;;;;;;25.02;60.49;99411.81;3121025;28;20048;-62
2022/08/24 08:07:16;;;;;;;;;;;;;;;25.08;59.96;99421.81;3121412;28;19925;-62